Detalii statie SILVAUR IMPEX [00001CFE]

Toti senzorii

Date Temperatura solului [C]Precipitatii [mm]Voltaj baterie [mV]Leaf Wetness [Min]HC Air temperature [C]HC Relative humidity [%]Punctul de roua [C]
medieminmaxsumaultimatimpmedieminmaxmediemediemin
2017-06-25 06:00:00 0 7080 14.95 14.51 15.74 0 0 0
2017-06-25 07:00:00 0 7372 16.66 15.84 17.81 0 0 0
2017-06-25 08:00:00 0 7352 19.35 17.84 20.69 0 0 0
2017-06-25 09:00:00 0 7362 22.72 20.95 24.63 0 0 0
2017-06-25 10:00:00 0 7362 26.4 25.31 27.78 0 0 0
2017-06-25 11:00:00 0 7362 28.24 26.48 29.59 0 0 0
2017-06-25 12:00:00 0 7332 29.32 28.15 30.19 0 0 0
2017-06-25 13:00:00 0 7332 30.72 29.82 31.63 0 0 0
2017-06-25 14:00:00 0 7332 31.31 30.29 32.41 0 0 0
2017-06-25 15:00:00 0 7324 32.25 31.43 33.08 0 0 0
2017-06-25 16:00:00 0 7226 31.85 30.76 32.72 0 0 0
2017-06-25 17:00:00 0 7324 31.05 30.46 31.83 0 0 0
2017-06-25 18:00:00 0 7324 30.43 29.94 30.86 0 0 0
2017-06-25 19:00:00 0 7324 29.28 28.54 29.83 0 0 0
2017-06-25 20:00:00 0 6932 26.92 25.3 28.22 0 0 0
2017-06-25 21:00:00 0 6864 23.74 22.53 25.13 0 0 0
2017-06-25 22:00:00 0 6844 21.87 21.44 22.26 0 0 0
2017-06-25 23:00:00 0 6834 21.18 20.83 21.81 0 0 0
2017-06-26 00:00:00 0 6844 20.38 19.65 20.97 0 0 0
2017-06-26 01:00:00 0 6826 19.26 18.81 19.56 0 0 0
2017-06-26 02:00:00 0 6826 18.05 17.49 18.94 0 0 0
2017-06-26 03:00:00 0 6816 17.36 16.83 17.6 0 0 0
2017-06-26 04:00:00 0 6816 16.29 15.85 17.04 0 0 0
2017-06-26 05:00:00 0 6834 16.28 15.86 16.94 0 0 0
2017-06-26 06:00:00 0 7098 18.42 17.18 19.75 0 0 0
2017-06-26 07:00:00 0 7264 20.71 19.66 21.29 0 0 0
2017-06-26 08:00:00 0 7372 23.08 21.62 24.01 0 0 0
2017-06-26 09:00:00 0 7362 24.97 24.52 25.68 0 0 0
2017-06-26 10:00:00 0 7362 25.13 24.48 26 0 0 0
2017-06-26 11:00:00 0 7342 26.68 25.14 27.98 0 0 0
2017-06-26 12:00:00 0 7332 27.96 27.59 28.67 0 0 0
2017-06-26 13:00:00 0 7332 29.08 28.05 30.16 0 0 0
2017-06-26 14:00:00 0 7332 31.68 30.24 32.91 0 0 0
2017-06-26 15:00:00 0 7324 30.73 28.72 33.13 0 0 0
2017-06-26 16:00:00 0.6 6952 24.24 21.32 28.32 0 0 0
2017-06-26 17:00:00 0.4 6982 21.66 21.24 22.19 0 0 0
2017-06-26 18:00:00 0.2 7060 21.7 21.42 22.09 0 0 0
2017-06-26 19:00:00 0.2 6454 0
2017-06-26 20:00:00 0 6416 0
2017-06-26 21:00:00 0 6356 0
2017-06-26 22:00:00 0 6298 0
2017-06-26 23:00:00 0 6230 0
2017-06-27 00:00:00 0 6112 0
2017-06-27 01:00:00 0.2 6346
2017-06-27 02:00:00 0 6356
2017-06-27 03:00:00 0 6366
2017-06-27 04:00:00 0 6376
2017-06-27 05:00:00 0 6366